Terminal Aerodrome Forecast
Issued by NWS

Home | Current Version | Previous Version | Text Only | Print | Product List | Glossary On
Versions: 1 2 3 4 5 6 7 8 9 10 11 12 13 14
000
FTUS42 TJSJ 250500
TAFJBQ
TAF
TJBQ 250537Z 2506/2606 10015KT P6SM SCT025
     FM251400 08018KT P6SM SCT025
     FM252330 09010KT P6SM SCT025
      AMD NOT SKED TIL 251100=

USA.gov is the U.S. government's official web portal to all federal, state and local government web resources and services.